createdAt,value
2019-02-19T00:02:04.423Z,9.18
2019-02-19T00:04:33.277Z,8.70
2019-02-19T00:07:02.344Z,9.45
2019-02-19T00:09:31.401Z,9.30
2019-02-19T00:12:00.275Z,9.15
2019-02-19T00:14:29.311Z,8.98
2019-02-19T00:16:58.118Z,8.78
2019-02-19T00:19:27.149Z,8.68
2019-02-19T00:21:55.954Z,9.60
2019-02-19T00:24:24.760Z,9.95
2019-02-19T00:26:53.575Z,9.28
2019-02-19T00:29:22.624Z,9.40
2019-02-19T00:31:51.434Z,8.88
2019-02-19T00:34:20.225Z,9.58
2019-02-19T00:36:49.006Z,8.68
2019-02-19T00:39:17.809Z,10.05
2019-02-19T00:41:46.591Z,9.60
2019-02-19T00:44:15.637Z,10.05
2019-02-19T00:46:44.422Z,9.53
2019-02-19T00:49:13.477Z,9.30
2019-02-19T00:51:42.261Z,9.38
2019-02-19T00:54:11.309Z,10.32
2019-02-19T00:56:40.117Z,15.98
2019-02-19T00:59:09.237Z,12.85
2019-02-19T01:01:38.369Z,12.35
2019-02-19T01:04:07.521Z,12.30
2019-02-19T01:06:36.304Z,11.55
2019-02-19T01:09:08.176Z,12.03
2019-02-19T01:11:37.216Z,12.68
2019-02-19T01:14:06.165Z,11.10
2019-02-19T01:16:35.202Z,10.25
2019-02-19T01:19:04.176Z,10.78
2019-02-19T01:21:33.217Z,11.35
2019-02-19T01:24:02.026Z,10.23
2019-02-19T01:26:31.154Z,10.55
2019-02-19T01:29:00.198Z,11.48
2019-02-19T01:31:29.221Z,10.40
2019-02-19T01:33:58.265Z,10.63
2019-02-19T01:36:27.548Z,10.63
2019-02-19T01:38:56.365Z,10.53
2019-02-19T01:41:25.244Z,10.30
2019-02-19T01:43:54.288Z,10.32
2019-02-19T01:46:23.068Z,10.58
2019-02-19T01:48:51.864Z,10.48
2019-02-19T01:51:20.645Z,10.15
2019-02-19T01:53:49.693Z,11.68
2019-02-19T01:56:18.731Z,10.40
2019-02-19T01:58:47.762Z,11.55
2019-02-19T02:01:16.548Z,10.63
2019-02-19T02:03:45.648Z,9.98
2019-02-19T02:06:14.518Z,11.63
2019-02-19T02:08:43.318Z,11.68
2019-02-19T02:11:12.108Z,9.33
2019-02-19T02:13:41.226Z,9.98
2019-02-19T02:16:10.250Z,10.90
2019-02-19T02:18:39.091Z,10.90
2019-02-19T02:21:08.165Z,10.03
2019-02-19T02:23:37.212Z,10.05
2019-02-19T02:26:06.009Z,10.32
2019-02-19T02:28:34.808Z,9.88
2019-02-19T02:31:03.598Z,10.23
2019-02-19T02:33:32.645Z,11.55
2019-02-19T02:36:01.434Z,9.60
2019-02-19T02:38:30.230Z,10.00
2019-02-19T02:40:59.261Z,9.73
2019-02-19T02:43:28.065Z,10.45
2019-02-19T02:45:57.086Z,10.20
2019-02-19T02:48:25.864Z,9.70
2019-02-19T02:50:54.668Z,9.85
2019-02-19T02:53:23.693Z,9.40
2019-02-19T02:55:52.494Z,10.58
2019-02-19T02:58:21.294Z,10.10
2019-02-19T03:00:50.353Z,10.20
2019-02-19T03:03:19.469Z,10.75
2019-02-19T03:06:21.996Z,11.30
2019-02-19T03:08:50.797Z,9.65
2019-02-19T03:11:19.589Z,8.88
2019-02-19T03:13:48.414Z,10.10
2019-02-19T03:16:17.282Z,11.00
2019-02-19T03:18:46.309Z,9.70
2019-02-19T03:21:15.113Z,9.25
2019-02-19T03:23:43.889Z,9.53
2019-02-19T03:26:12.934Z,9.30
2019-02-19T03:28:41.715Z,9.45
2019-02-19T03:31:11.003Z,10.93
2019-02-19T03:33:40.046Z,10.20
2019-02-19T03:36:08.830Z,10.70
2019-02-19T03:38:37.636Z,11.70
2019-02-19T03:41:06.611Z,10.82
2019-02-19T03:43:35.425Z,12.55
2019-02-19T03:46:11.821Z,11.30
2019-02-19T03:48:34.806Z,11.60
2019-02-19T03:51:03.677Z,11.12
2019-02-19T03:53:32.701Z,10.60
2019-02-19T03:56:01.571Z,11.30
2019-02-19T03:58:30.426Z,10.38
2019-02-19T04:00:59.356Z,11.15
2019-02-19T04:03:28.208Z,10.35
2019-02-19T04:05:57.409Z,10.32
2019-02-19T04:08:26.193Z,11.03
2019-02-19T04:10:55.005Z,10.10
2019-02-19T04:13:23.793Z,10.38
2019-02-19T04:15:52.849Z,11.28
2019-02-19T04:18:21.637Z,10.80
2019-02-19T04:20:50.699Z,10.80
2019-02-19T04:23:19.493Z,9.80
2019-02-19T04:25:48.361Z,10.13
2019-02-19T04:28:17.157Z,10.45
2019-02-19T04:30:45.949Z,10.93
2019-02-19T04:36:55.824Z,11.60
2019-02-19T04:39:24.866Z,11.60
2019-02-19T04:41:53.672Z,10.28
2019-02-19T04:44:22.466Z,10.75
2019-02-19T04:46:51.270Z,11.48
2019-02-19T04:49:20.063Z,10.68
2019-02-19T04:51:49.124Z,10.98
2019-02-19T04:54:17.919Z,11.10
2019-02-19T04:56:46.708Z,10.13
2019-02-19T04:59:15.628Z,11.93
2019-02-19T05:01:44.502Z,10.08
2019-02-19T05:04:13.476Z,10.90
2019-02-19T05:06:42.367Z,11.83
2019-02-19T05:09:11.512Z,10.85
2019-02-19T05:11:40.336Z,11.63
2019-02-19T05:14:09.129Z,12.60
2019-02-19T05:16:40.725Z,12.23
2019-02-19T05:19:08.676Z,10.80
2019-02-19T05:21:37.568Z,11.22
2019-02-19T05:24:06.362Z,12.45
2019-02-19T05:26:35.238Z,11.78
2019-02-19T05:29:04.367Z,11.50
2019-02-19T05:31:33.177Z,10.85
2019-02-19T05:34:02.191Z,11.95
2019-02-19T05:36:30.998Z,11.35
2019-02-19T05:38:59.791Z,10.68
2019-02-19T05:41:28.590Z,10.88
2019-02-19T05:43:57.394Z,11.35
2019-02-19T05:46:26.201Z,12.73
2019-02-19T05:48:55.328Z,11.35
2019-02-19T05:51:24.200Z,10.65
2019-02-19T05:53:52.991Z,10.40
2019-02-19T05:56:21.795Z,10.82
2019-02-19T05:58:50.587Z,11.75
2019-02-19T06:01:19.395Z,12.85
2019-02-19T06:03:48.194Z,12.03
2019-02-19T06:06:17.018Z,11.08
2019-02-19T06:08:45.817Z,11.22
2019-02-19T06:11:14.725Z,11.38
2019-02-19T06:13:43.525Z,11.70
2019-02-19T06:16:12.325Z,11.97
2019-02-19T06:18:41.113Z,10.65
2019-02-19T06:21:10.241Z,10.90
2019-02-19T06:23:39.054Z,10.70
2019-02-19T06:26:07.938Z,11.30
2019-02-19T06:28:36.750Z,10.58
2019-02-19T06:31:05.557Z,10.10
2019-02-19T06:33:34.362Z,10.50
2019-02-19T06:36:03.173Z,11.18
2019-02-19T06:38:32.062Z,10.03
2019-02-19T06:41:02.020Z,10.43
2019-02-19T06:43:31.125Z,10.32
2019-02-19T06:45:59.914Z,9.18
2019-02-19T06:48:28.721Z,10.82
2019-02-19T06:50:57.510Z,9.85
2019-02-19T06:53:26.389Z,9.95
2019-02-19T06:55:55.424Z,10.18
2019-02-19T06:58:24.247Z,9.70
2019-02-19T07:00:53.141Z,11.43
2019-02-19T07:03:50.539Z,11.03
2019-02-19T07:06:19.418Z,9.85
2019-02-19T07:08:48.220Z,10.30
2019-02-19T07:11:17.029Z,9.95
2019-02-19T07:13:46.086Z,9.70
2019-02-19T07:16:14.970Z,8.73
2019-02-19T07:18:43.777Z,9.60
2019-02-19T07:21:12.655Z,9.73
2019-02-19T07:23:41.453Z,9.90
2019-02-19T07:26:10.241Z,9.95
2019-02-19T07:28:39.618Z,9.48
2019-02-19T07:31:08.406Z,8.85
2019-02-19T07:33:37.498Z,10.30
2019-02-19T07:36:06.372Z,10.58
2019-02-19T07:38:35.508Z,11.28
2019-02-19T07:41:04.368Z,12.55
2019-02-19T07:43:33.229Z,10.40
2019-02-19T07:46:02.037Z,10.60
2019-02-19T07:48:31.153Z,9.03
2019-02-19T07:50:59.936Z,9.25
2019-02-19T07:53:28.751Z,10.53
2019-02-19T07:55:57.533Z,9.38
2019-02-19T07:58:26.336Z,10.82
2019-02-19T08:00:55.139Z,13.55
2019-02-19T08:03:23.949Z,26.55
2019-02-19T08:05:53.085Z,27.70
2019-02-19T08:08:21.899Z,25.30
2019-02-19T08:10:50.705Z,12.10
2019-02-19T08:13:19.518Z,20.12
2019-02-19T08:15:48.384Z,17.90
2019-02-19T08:18:17.442Z,11.03
2019-02-19T08:20:46.240Z,17.87
2019-02-19T08:23:15.300Z,15.50
2019-02-19T08:25:44.349Z,13.00
2019-02-19T08:28:13.497Z,10.40
2019-02-19T08:30:42.305Z,9.90
2019-02-19T08:33:11.115Z,9.93
2019-02-19T08:35:40.158Z,9.98
2019-02-19T08:38:08.984Z,17.45
2019-02-19T08:40:37.769Z,11.63
2019-02-19T08:43:06.585Z,12.00
2019-02-19T08:45:35.393Z,11.35
2019-02-19T08:48:04.269Z,9.78
2019-02-19T08:50:33.382Z,10.38
2019-02-19T08:53:02.460Z,11.55
2019-02-19T08:55:31.500Z,10.30
2019-02-19T08:58:00.292Z,8.60
2019-02-19T09:00:29.171Z,9.88
2019-02-19T09:02:57.965Z,9.03
2019-02-19T09:05:26.761Z,7.87
2019-02-19T09:07:55.560Z,9.78
2019-02-19T09:10:24.399Z,9.38
2019-02-19T09:12:53.215Z,9.28
2019-02-19T09:15:22.022Z,9.40
2019-02-19T09:17:52.247Z,9.10
2019-02-19T09:20:21.548Z,9.60
2019-02-19T09:22:50.342Z,8.87
2019-02-19T09:25:19.247Z,8.70
2019-02-19T09:27:48.046Z,9.30
2019-02-19T09:30:16.874Z,18.83
2019-02-19T09:32:47.175Z,8.80
2019-02-19T09:35:16.302Z,8.50
2019-02-19T09:37:45.122Z,7.93
2019-02-19T09:40:14.016Z,16.67
2019-02-19T09:42:42.920Z,6.90
2019-02-19T09:45:12.150Z,9.57
2019-02-19T09:47:41.229Z,13.87
2019-02-19T09:50:10.217Z,8.60
2019-02-19T09:52:39.162Z,8.10
2019-02-19T09:55:08.063Z,7.93
2019-02-19T09:57:36.862Z,7.17
2019-02-19T10:00:07.682Z,7.27
2019-02-19T10:02:36.541Z,6.83
2019-02-19T10:05:06.591Z,7.07
2019-02-19T10:07:35.521Z,8.00
2019-02-19T10:10:04.464Z,6.80
2019-02-19T10:12:33.256Z,6.67
2019-02-19T10:15:02.052Z,7.20
2019-02-19T10:17:30.864Z,6.87
2019-02-19T10:19:59.666Z,9.73
2019-02-19T10:22:28.728Z,9.97
2019-02-19T10:24:57.569Z,7.10
2019-02-19T10:27:26.470Z,7.00
2019-02-19T10:29:55.541Z,7.40
2019-02-19T10:32:24.357Z,6.57
2019-02-19T10:34:53.175Z,8.53
2019-02-19T10:37:22.362Z,6.73
2019-02-19T10:39:51.172Z,6.37
2019-02-19T10:42:19.987Z,6.60
2019-02-19T10:44:50.448Z,6.87
2019-02-19T10:47:19.253Z,6.20
2019-02-19T10:49:48.395Z,6.77
2019-02-19T10:52:17.447Z,6.70
2019-02-19T10:54:46.254Z,6.60
2019-02-19T10:57:15.060Z,5.33
2019-02-19T10:59:43.938Z,5.53
2019-02-19T11:02:12.758Z,4.77
2019-02-19T11:04:41.802Z,5.80
2019-02-19T11:07:10.629Z,5.03
2019-02-19T11:09:39.433Z,5.83
2019-02-19T11:12:08.337Z,6.70
2019-02-19T11:14:37.153Z,6.10
2019-02-19T11:17:05.970Z,5.77
2019-02-19T11:19:34.800Z,6.20
2019-02-19T11:22:03.604Z,7.17
2019-02-19T11:24:32.403Z,6.90
2019-02-19T11:27:01.278Z,7.10
2019-02-19T11:29:30.418Z,6.70
2019-02-19T11:31:59.496Z,6.50
2019-02-19T11:34:28.374Z,6.30
2019-02-19T11:36:57.264Z,6.90
2019-02-19T11:39:26.069Z,6.70
2019-02-19T11:41:55.199Z,7.37
2019-02-19T11:44:24.068Z,7.30
2019-02-19T11:46:53.128Z,6.77
2019-02-19T11:49:22.244Z,5.90
2019-02-19T11:51:51.341Z,7.47
2019-02-19T11:54:21.848Z,7.37
2019-02-19T11:56:50.860Z,6.77
2019-02-19T11:59:19.737Z,7.00
2019-02-19T12:01:49.434Z,7.20
2019-02-19T12:04:18.338Z,7.80
2019-02-19T12:06:47.274Z,7.70
2019-02-19T12:09:16.090Z,7.67
2019-02-19T12:11:45.235Z,7.43
2019-02-19T12:14:14.050Z,7.10
2019-02-19T12:16:42.945Z,7.10
2019-02-19T12:19:11.850Z,7.50
2019-02-19T12:21:40.668Z,6.93
2019-02-19T12:24:09.725Z,7.90
2019-02-19T12:26:38.550Z,8.13
2019-02-19T12:29:07.730Z,7.50
2019-02-19T12:31:52.854Z,7.50
2019-02-19T12:34:21.661Z,7.57
2019-02-19T12:36:50.623Z,8.73
2019-02-19T12:39:19.926Z,7.70
2019-02-19T12:41:48.745Z,6.93
2019-02-19T12:44:17.566Z,7.40
2019-02-19T12:46:46.389Z,7.87
2019-02-19T12:53:07.341Z,6.97
2019-02-19T12:55:36.779Z,7.30
2019-02-19T12:58:06.251Z,6.97
2019-02-19T13:00:35.334Z,8.53
2019-02-19T13:03:09.827Z,8.07
2019-02-19T13:05:39.142Z,7.57
2019-02-19T13:08:08.119Z,7.50
2019-02-19T13:10:37.007Z,7.67
2019-02-19T13:13:05.819Z,8.50
2019-02-19T13:15:34.783Z,7.97
2019-02-19T13:18:03.681Z,7.97
2019-02-19T13:20:32.846Z,8.47
2019-02-19T13:23:01.998Z,8.13
2019-02-19T13:25:30.881Z,7.90
2019-02-19T13:27:59.722Z,7.13
2019-02-19T13:30:28.527Z,7.57
2019-02-19T13:32:57.355Z,8.93
2019-02-19T13:35:26.229Z,6.97
2019-02-19T13:37:55.301Z,7.80
2019-02-19T13:40:24.354Z,8.33
2019-02-19T13:42:53.294Z,7.50
2019-02-19T13:45:22.284Z,6.97
2019-02-19T13:47:51.191Z,9.07
2019-02-19T13:50:20.762Z,8.90
2019-02-19T13:52:55.028Z,9.00
2019-02-19T13:55:27.530Z,7.90
2019-02-19T13:57:57.462Z,7.40
2019-02-19T14:00:28.337Z,7.70
2019-02-19T14:02:57.358Z,7.43
2019-02-19T14:05:26.249Z,7.53
2019-02-19T14:07:55.142Z,8.60
2019-02-19T14:10:23.972Z,7.97
2019-02-19T14:12:52.959Z,8.33
2019-02-19T14:15:46.760Z,8.03
2019-02-19T14:18:18.916Z,8.50
2019-02-19T14:21:13.266Z,7.65
2019-02-19T14:23:56.909Z,8.73
2019-02-19T14:26:44.886Z,7.80
2019-02-19T14:29:31.808Z,9.60
2019-02-19T14:32:18.364Z,7.70
2019-02-19T14:35:03.098Z,9.57
2019-02-19T14:37:53.738Z,8.90
2019-02-19T14:40:43.214Z,8.50
2019-02-19T14:43:44.445Z,8.67
2019-02-19T14:46:35.306Z,8.03
2019-02-19T14:49:20.935Z,8.97
2019-02-19T14:52:01.441Z,8.53
2019-02-19T14:54:38.950Z,9.10
2019-02-19T14:57:21.837Z,8.77
2019-02-19T15:00:13.581Z,9.77
2019-02-19T15:03:00.344Z,10.40
2019-02-19T15:05:54.240Z,8.90
2019-02-19T15:08:57.373Z,10.00
2019-02-19T15:11:37.658Z,9.50
2019-02-19T15:14:43.758Z,9.10
2019-02-19T15:17:30.523Z,8.97
2019-02-19T15:20:19.237Z,9.70
2019-02-19T15:23:07.139Z,8.73
2019-02-19T15:26:04.486Z,8.70
2019-02-19T15:28:55.475Z,8.37
2019-02-19T15:31:43.361Z,9.30
2019-02-19T15:34:43.828Z,8.50
2019-02-19T15:37:30.718Z,9.70
2019-02-19T15:40:24.042Z,9.33
2019-02-19T15:43:06.065Z,9.33
2019-02-19T15:45:52.890Z,9.53
2019-02-19T15:48:39.777Z,10.17
2019-02-19T15:51:26.538Z,12.13
2019-02-19T15:54:07.046Z,10.30
2019-02-19T15:56:54.972Z,9.43
2019-02-19T15:59:31.861Z,9.23
2019-02-19T16:02:26.130Z,10.67
2019-02-19T16:05:16.898Z,10.00
2019-02-19T16:07:53.487Z,9.43
2019-02-19T16:10:34.968Z,9.90
2019-02-19T16:13:22.965Z,8.87
2019-02-19T16:16:10.999Z,10.10
2019-02-19T16:18:57.088Z,9.83
2019-02-19T16:21:48.224Z,8.90
2019-02-19T16:24:36.262Z,9.83
2019-02-19T16:27:15.600Z,9.50
2019-02-19T16:29:55.872Z,11.27
2019-02-19T16:32:43.802Z,10.30
2019-02-19T16:35:44.215Z,8.67
2019-02-19T16:38:23.643Z,9.70
2019-02-19T16:41:05.962Z,9.43
2019-02-19T16:43:42.924Z,10.77
2019-02-19T16:46:37.067Z,9.47
2019-02-19T16:49:28.327Z,9.70
2019-02-19T16:52:12.187Z,10.40
2019-02-19T16:55:00.366Z,10.33
2019-02-19T16:57:41.562Z,9.37
2019-02-19T17:00:25.960Z,11.23
2019-02-19T17:03:04.576Z,10.40
2019-02-19T17:05:53.718Z,10.67
2019-02-19T17:08:41.358Z,9.67
2019-02-19T17:11:20.091Z,10.03
2019-02-19T17:14:11.335Z,8.90
2019-02-19T17:16:48.292Z,10.60
2019-02-19T17:19:49.053Z,10.10
2019-02-19T17:22:28.055Z,10.53
2019-02-19T17:25:16.009Z,10.80
2019-02-19T17:28:06.738Z,11.17
2019-02-19T17:30:55.327Z,11.33
2019-02-19T17:33:34.697Z,12.20
2019-02-19T17:36:11.930Z,11.13
2019-02-19T17:39:08.767Z,11.37
2019-02-19T17:41:44.068Z,10.73
2019-02-19T17:44:31.197Z,10.60
2019-02-19T17:47:24.686Z,10.50
2019-02-19T17:50:11.668Z,10.20
2019-02-19T17:52:59.664Z,9.77
2019-02-19T17:56:00.044Z,9.10
2019-02-19T17:58:42.334Z,10.50
2019-02-19T18:01:48.902Z,10.10
2019-02-19T18:04:23.194Z,10.43
2019-02-19T18:07:14.262Z,10.93
2019-02-19T18:10:11.767Z,10.30
2019-02-19T18:12:58.629Z,10.67
2019-02-19T18:16:01.986Z,10.67
2019-02-19T18:18:49.118Z,20.70
2019-02-19T18:21:27.428Z,13.67
2019-02-19T18:23:57.079Z,11.50
2019-02-19T18:26:26.468Z,13.30
2019-02-19T18:28:56.016Z,27.90
2019-02-19T18:31:25.267Z,23.47
2019-02-19T18:33:54.919Z,22.33
2019-02-19T18:36:23.927Z,20.30
2019-02-19T18:38:53.130Z,17.90
2019-02-19T18:41:29.834Z,13.90
2019-02-19T18:43:59.136Z,12.80
2019-02-19T18:46:28.476Z,15.20
2019-02-19T18:48:57.809Z,21.83
2019-02-19T18:51:28.987Z,18.70
2019-02-19T18:54:09.537Z,12.97
2019-02-19T18:56:50.864Z,13.80
2019-02-19T18:59:15.965Z,14.68
2019-02-19T19:01:45.195Z,15.13
2019-02-19T19:04:14.601Z,12.50
2019-02-19T19:42:22.000Z,20.92
2019-02-19T19:44:51.591Z,21.15
2019-02-19T19:47:20.795Z,17.75
2019-02-19T19:49:49.779Z,16.55
2019-02-19T19:52:18.650Z,18.30
2019-02-19T19:54:47.729Z,48.70
2019-02-19T19:57:18.607Z,17.30
2019-02-19T19:59:47.522Z,16.67
2019-02-19T20:02:18.485Z,19.30
2019-02-19T20:04:46.975Z,16.95
2019-02-19T20:07:15.834Z,19.55
2019-02-19T20:09:44.886Z,16.17
2019-02-19T20:12:13.782Z,17.27
2019-02-19T20:14:42.762Z,15.60
2019-02-19T20:17:11.750Z,17.48
2019-02-19T20:19:41.343Z,15.90
2019-02-19T20:22:10.303Z,18.80
2019-02-19T20:24:39.139Z,15.20
2019-02-19T20:27:08.042Z,16.10
2019-02-19T20:29:36.928Z,20.90
2019-02-19T20:32:05.783Z,18.15
2019-02-19T20:34:34.649Z,18.57
2019-02-19T20:37:03.521Z,18.98
2019-02-19T20:39:32.429Z,19.07
2019-02-19T20:42:01.300Z,20.50
2019-02-19T20:44:30.305Z,17.52
2019-02-19T20:47:00.270Z,18.95
2019-02-19T20:49:29.222Z,18.70
2019-02-19T20:51:58.491Z,19.57
2019-02-19T20:54:27.546Z,19.75
2019-02-19T20:56:57.842Z,23.12
2019-02-19T20:59:26.715Z,19.62
2019-02-19T21:01:55.597Z,27.32
2019-02-19T21:04:24.410Z,31.30
2019-02-19T21:06:53.213Z,30.62
2019-02-19T21:09:22.290Z,30.23
2019-02-19T21:11:51.150Z,33.23
2019-02-19T21:14:19.936Z,33.33
2019-02-19T21:16:48.733Z,30.77
2019-02-19T21:19:17.536Z,26.00
2019-02-19T21:21:46.361Z,24.05
2019-02-19T21:24:15.419Z,25.77
2019-02-19T21:26:44.298Z,22.42
2019-02-19T21:29:13.101Z,23.87
2019-02-19T21:31:41.993Z,23.35
2019-02-19T21:34:10.853Z,22.37
2019-02-19T21:36:39.666Z,20.70
2019-02-19T21:39:08.552Z,19.98
2019-02-19T21:41:37.621Z,19.45
2019-02-19T21:44:06.425Z,19.00
2019-02-19T21:46:35.374Z,19.70
2019-02-19T21:49:04.246Z,17.52
2019-02-19T21:51:33.040Z,17.80
2019-02-19T21:54:01.870Z,17.17
2019-02-19T21:56:30.749Z,18.98
2019-02-19T21:58:59.628Z,18.40
2019-02-19T22:01:28.690Z,18.90
2019-02-19T22:03:57.482Z,18.62
2019-02-19T22:06:26.284Z,18.10
2019-02-19T22:08:55.089Z,18.12
2019-02-19T22:11:23.901Z,17.73
2019-02-19T22:13:52.793Z,16.67
2019-02-19T22:16:21.589Z,19.55
2019-02-19T22:18:50.453Z,19.82
2019-02-19T22:21:24.264Z,17.52
2019-02-19T22:23:53.137Z,17.30
2019-02-19T22:26:21.931Z,21.10
2019-02-19T22:28:50.805Z,20.92
2019-02-19T22:31:19.597Z,18.80
2019-02-19T22:33:48.718Z,19.67
2019-02-19T22:36:17.517Z,19.95
2019-02-19T22:38:46.333Z,19.45
2019-02-19T22:41:15.379Z,20.15
2019-02-19T22:43:44.180Z,20.90
2019-02-19T22:46:12.985Z,20.43
2019-02-19T22:48:41.774Z,21.23
2019-02-19T22:51:10.882Z,21.70
2019-02-19T22:54:01.902Z,20.97
2019-02-19T22:56:33.624Z,19.65
2019-02-19T22:59:02.497Z,19.98
2019-02-19T23:01:34.142Z,19.10
2019-02-19T23:04:03.050Z,20.70
2019-02-19T23:06:32.230Z,19.23
2019-02-19T23:09:01.037Z,20.23
2019-02-19T23:11:29.912Z,18.00
2019-02-19T23:13:58.717Z,20.05
2019-02-19T23:16:27.518Z,19.85
2019-02-19T23:18:56.396Z,20.17
2019-02-19T23:21:25.185Z,19.17
2019-02-19T23:23:53.992Z,20.00
2019-02-19T23:26:22.802Z,21.12
2019-02-19T23:28:51.615Z,21.95
2019-02-19T23:31:20.409Z,20.70
2019-02-19T23:33:49.204Z,21.62
2019-02-19T23:36:25.780Z,22.22
2019-02-19T23:38:54.577Z,21.12
2019-02-19T23:41:23.698Z,21.20
2019-02-19T23:43:52.582Z,21.27
2019-02-19T23:46:21.461Z,20.40
2019-02-19T23:48:50.248Z,19.55
2019-02-19T23:51:19.120Z,19.77
2019-02-19T23:53:47.917Z,21.10
2019-02-19T23:56:16.710Z,21.90
2019-02-19T23:58:45.753Z,21.00
